sensor_id;sensor_type;location;lat;lon;timestamp;pressure;altitude;pressure_sealevel;temperature;humidity
68988;BME280;56038;46.080;11.116;2022-10-04T00:04:28;99894.03;;;14.77;57.33
68988;BME280;56038;46.080;11.116;2022-10-04T00:09:35;99891.81;;;14.69;58.24
68988;BME280;56038;46.080;11.116;2022-10-04T00:14:42;99898.19;;;14.63;58.57
68988;BME280;56038;46.080;11.116;2022-10-04T00:19:46;99902.91;;;14.57;58.39
68988;BME280;56038;46.080;11.116;2022-10-04T00:25:17;99908.44;;;14.51;58.24
68988;BME280;56038;46.080;11.116;2022-10-04T00:30:22;99913.34;;;14.39;58.50
68988;BME280;56038;46.080;11.116;2022-10-04T00:35:47;99914.53;;;14.32;59.31
68988;BME280;56038;46.080;11.116;2022-10-04T00:40:51;99911.28;;;14.27;59.30
68988;BME280;56038;46.080;11.116;2022-10-04T00:45:58;99913.97;;;14.26;59.88
68988;BME280;56038;46.080;11.116;2022-10-04T00:51:10;99913.47;;;14.18;60.15
68988;BME280;56038;46.080;11.116;2022-10-04T00:56:17;99918.03;;;14.14;59.83
68988;BME280;56038;46.080;11.116;2022-10-04T01:01:25;99913.47;;;14.18;59.55
68988;BME280;56038;46.080;11.116;2022-10-04T01:06:29;99914.47;;;14.15;59.71
68988;BME280;56038;46.080;11.116;2022-10-04T01:11:35;99911.91;;;14.14;59.60
68988;BME280;56038;46.080;11.116;2022-10-04T01:16:39;99912.28;;;14.06;59.86
68988;BME280;56038;46.080;11.116;2022-10-04T01:21:42;99908.34;;;13.96;60.30
68988;BME280;56038;46.080;11.116;2022-10-04T01:26:45;99897.63;;;13.82;60.46
68988;BME280;56038;46.080;11.116;2022-10-04T01:31:48;99911.47;;;13.85;60.56
68988;BME280;56038;46.080;11.116;2022-10-04T01:36:53;99899.69;;;13.75;60.13
68988;BME280;56038;46.080;11.116;2022-10-04T01:42:00;99905.91;;;13.72;60.57
68988;BME280;56038;46.080;11.116;2022-10-04T01:47:07;99903.28;;;13.72;61.05
68988;BME280;56038;46.080;11.116;2022-10-04T01:52:15;99898.22;;;13.68;60.77
68988;BME280;56038;46.080;11.116;2022-10-04T01:57:22;99891.34;;;13.65;61.20
68988;BME280;56038;46.080;11.116;2022-10-04T02:02:32;99901.22;;;13.60;60.95
68988;BME280;56038;46.080;11.116;2022-10-04T02:07:36;99903.75;;;13.62;60.04
68988;BME280;56038;46.080;11.116;2022-10-04T02:12:43;99902.59;;;13.48;60.06
68988;BME280;56038;46.080;11.116;2022-10-04T02:17:46;99902.91;;;13.41;59.71
68988;BME280;56038;46.080;11.116;2022-10-04T02:22:51;99894.25;;;13.39;59.51
68988;BME280;56038;46.080;11.116;2022-10-04T02:28:00;99904.66;;;13.42;59.01
68988;BME280;56038;46.080;11.116;2022-10-04T02:33:02;99897.22;;;13.31;59.92
68988;BME280;56038;46.080;11.116;2022-10-04T02:38:08;99901.06;;;13.23;60.20
68988;BME280;56038;46.080;11.116;2022-10-04T02:43:16;99905.53;;;13.21;60.34
68988;BME280;56038;46.080;11.116;2022-10-04T02:48:29;99912.41;;;13.23;60.15
68988;BME280;56038;46.080;11.116;2022-10-04T02:53:44;99918.97;;;13.13;60.21
68988;BME280;56038;46.080;11.116;2022-10-04T02:58:48;99921.66;;;13.11;59.93
68988;BME280;56038;46.080;11.116;2022-10-04T03:03:50;99927.69;;;13.13;59.81
68988;BME280;56038;46.080;11.116;2022-10-04T03:08:54;99933.38;;;13.03;60.35
68988;BME280;56038;46.080;11.116;2022-10-04T03:14:01;99933.72;;;12.94;61.23
68988;BME280;56038;46.080;11.116;2022-10-04T03:19:04;99930.16;;;12.96;61.24
68988;BME280;56038;46.080;11.116;2022-10-04T03:24:11;99927.03;;;12.86;61.45
68988;BME280;56038;46.080;11.116;2022-10-04T03:29:21;99935.75;;;12.87;61.45
68988;BME280;56038;46.080;11.116;2022-10-04T03:34:25;99936.59;;;12.87;61.20
68988;BME280;56038;46.080;11.116;2022-10-04T03:39:31;99940.34;;;12.82;61.13
68988;BME280;56038;46.080;11.116;2022-10-04T03:44:35;99944.22;;;12.72;61.56
68988;BME280;56038;46.080;11.116;2022-10-04T03:49:38;99939.00;;;12.72;61.67
68988;BME280;56038;46.080;11.116;2022-10-04T03:54:41;99942.59;;;12.69;61.57
68988;BME280;56038;46.080;11.116;2022-10-04T03:59:45;99943.91;;;12.57;62.13
68988;BME280;56038;46.080;11.116;2022-10-04T04:04:51;99942.88;;;12.62;61.89
68988;BME280;56038;46.080;11.116;2022-10-04T04:10:00;99953.25;;;12.65;61.72
68988;BME280;56038;46.080;11.116;2022-10-04T04:15:09;99948.44;;;12.54;62.29
68988;BME280;56038;46.080;11.116;2022-10-04T04:20:18;99952.81;;;12.53;62.47
68988;BME280;56038;46.080;11.116;2022-10-04T04:25:23;99952.31;;;12.44;62.43
68988;BME280;56038;46.080;11.116;2022-10-04T04:30:28;99954.13;;;12.42;62.41
68988;BME280;56038;46.080;11.116;2022-10-04T04:35:32;99959.81;;;12.31;62.75
68988;BME280;56038;46.080;11.116;2022-10-04T04:40:36;99965.06;;;12.29;62.46
68988;BME280;56038;46.080;11.116;2022-10-04T04:45:39;99970.50;;;12.25;62.78
68988;BME280;56038;46.080;11.116;2022-10-04T04:50:42;99980.13;;;12.24;63.12
68988;BME280;56038;46.080;11.116;2022-10-04T04:55:50;99984.63;;;12.21;62.47
68988;BME280;56038;46.080;11.116;2022-10-04T05:00:57;99992.47;;;12.21;62.37
68988;BME280;56038;46.080;11.116;2022-10-04T05:06:00;99993.41;;;12.20;61.90
68988;BME280;56038;46.080;11.116;2022-10-04T05:11:10;100007.72;;;12.10;62.57
68988;BME280;56038;46.080;11.116;2022-10-04T05:16:19;100007.09;;;12.03;62.61
68988;BME280;56038;46.080;11.116;2022-10-04T05:21:26;100007.72;;;12.10;62.45
68988;BME280;56038;46.080;11.116;2022-10-04T05:26:29;100016.50;;;12.09;62.11
68988;BME280;56038;46.080;11.116;2022-10-04T05:31:40;100026.41;;;12.01;62.92
68988;BME280;56038;46.080;11.116;2022-10-04T05:37:08;100020.34;;;11.98;62.94
68988;BME280;56038;46.080;11.116;2022-10-04T05:42:20;100046.44;;;12.02;62.92
68988;BME280;56038;46.080;11.116;2022-10-04T05:47:25;100044.06;;;11.94;62.80
68988;BME280;56038;46.080;11.116;2022-10-04T05:52:30;100049.19;;;11.97;62.71
68988;BME280;56038;46.080;11.116;2022-10-04T05:57:38;100055.19;;;12.01;62.87
68988;BME280;56038;46.080;11.116;2022-10-04T06:03:12;100056.91;;;12.02;62.67
68988;BME280;56038;46.080;11.116;2022-10-04T06:08:32;100043.75;;;12.03;62.88
68988;BME280;56038;46.080;11.116;2022-10-04T06:24:54;100059.72;;;12.20;62.21
68988;BME280;56038;46.080;11.116;2022-10-04T06:30:00;100068.84;;;12.34;61.63
68988;BME280;56038;46.080;11.116;2022-10-04T06:46:21;100084.97;;;12.46;60.58
68988;BME280;56038;46.080;11.116;2022-10-04T06:51:38;100088.78;;;12.38;60.46
68988;BME280;56038;46.080;11.116;2022-10-04T06:57:06;100079.47;;;12.54;59.70
68988;BME280;56038;46.080;11.116;2022-10-04T07:02:18;100075.13;;;12.53;60.00
68988;BME280;56038;46.080;11.116;2022-10-04T07:07:24;100083.03;;;12.75;58.42
68988;BME280;56038;46.080;11.116;2022-10-04T07:12:39;100083.75;;;12.80;57.96
68988;BME280;56038;46.080;11.116;2022-10-04T07:17:46;100085.78;;;12.95;57.01
68988;BME280;56038;46.080;11.116;2022-10-04T07:22:54;100080.94;;;13.06;56.40
68988;BME280;56038;46.080;11.116;2022-10-04T07:28:02;100084.69;;;13.01;56.28
68988;BME280;56038;46.080;11.116;2022-10-04T07:33:26;100092.31;;;13.30;56.37
68988;BME280;56038;46.080;11.116;2022-10-04T07:38:31;100095.59;;;13.57;55.87
68988;BME280;56038;46.080;11.116;2022-10-04T07:43:46;100099.63;;;13.86;55.46
68988;BME280;56038;46.080;11.116;2022-10-04T07:48:49;100102.66;;;14.18;54.76
68988;BME280;56038;46.080;11.116;2022-10-04T07:53:54;100095.69;;;14.37;53.52
68988;BME280;56038;46.080;11.116;2022-10-04T07:59:14;100100.47;;;14.68;52.00
68988;BME280;56038;46.080;11.116;2022-10-04T08:04:29;100101.94;;;14.55;52.07
68988;BME280;56038;46.080;11.116;2022-10-04T08:09:40;100098.72;;;14.48;52.15
68988;BME280;56038;46.080;11.116;2022-10-04T08:14:55;100098.72;;;14.48;52.57
68988;BME280;56038;46.080;11.116;2022-10-04T08:20:05;100098.53;;;14.53;52.46
68988;BME280;56038;46.080;11.116;2022-10-04T08:25:19;100100.56;;;14.65;52.77
68988;BME280;56038;46.080;11.116;2022-10-04T08:30:22;100100.81;;;14.79;52.35
68988;BME280;56038;46.080;11.116;2022-10-04T08:35:34;100093.00;;;14.78;51.95
68988;BME280;56038;46.080;11.116;2022-10-04T08:46:46;100071.94;;;14.96;51.04
68988;BME280;56038;46.080;11.116;2022-10-04T08:52:18;100073.25;;;14.88;52.04
68988;BME280;56038;46.080;11.116;2022-10-04T08:57:48;100076.28;;;14.97;52.80
68988;BME280;56038;46.080;11.116;2022-10-04T09:19:54;100096.41;;;15.53;49.62
68988;BME280;56038;46.080;11.116;2022-10-04T09:25:12;100097.16;;;15.74;48.43
68988;BME280;56038;46.080;11.116;2022-10-04T09:30:22;100088.25;;;15.77;49.13
68988;BME280;56038;46.080;11.116;2022-10-04T09:35:51;100088.72;;;15.68;49.57
68988;BME280;56038;46.080;11.116;2022-10-04T09:41:30;100083.47;;;15.68;47.80
68988;BME280;56038;46.080;11.116;2022-10-04T09:46:56;100082.69;;;15.83;47.88
68988;BME280;56038;46.080;11.116;2022-10-04T09:52:12;100077.50;;;15.81;47.21
68988;BME280;56038;46.080;11.116;2022-10-04T09:57:38;100071.84;;;15.89;45.90
68988;BME280;56038;46.080;11.116;2022-10-04T10:03:09;100068.06;;;15.95;46.76
68988;BME280;56038;46.080;11.116;2022-10-04T10:08:24;100075.53;;;16.20;46.60
68988;BME280;56038;46.080;11.116;2022-10-04T10:13:41;100062.81;;;16.28;46.48
68988;BME280;56038;46.080;11.116;2022-10-04T10:19:09;100055.84;;;16.27;46.89
68988;BME280;56038;46.080;11.116;2022-10-04T10:24:31;100044.31;;;16.45;46.18
68988;BME280;56038;46.080;11.116;2022-10-04T10:30:15;100050.19;;;16.50;45.78
68988;BME280;56038;46.080;11.116;2022-10-04T10:35:43;100053.75;;;16.49;46.95
68988;BME280;56038;46.080;11.116;2022-10-04T10:40:59;100045.16;;;16.45;47.24
68988;BME280;56038;46.080;11.116;2022-10-04T10:46:16;100055.28;;;16.53;47.65
68988;BME280;56038;46.080;11.116;2022-10-04T10:51:43;100046.22;;;16.59;48.44
68988;BME280;56038;46.080;11.116;2022-10-04T10:56:59;100034.97;;;16.55;48.50
68988;BME280;56038;46.080;11.116;2022-10-04T11:07:48;100022.63;;;16.73;46.54
68988;BME280;56038;46.080;11.116;2022-10-04T11:13:21;100025.75;;;16.80;46.53
68988;BME280;56038;46.080;11.116;2022-10-04T11:24:26;100015.47;;;16.91;46.76
68988;BME280;56038;46.080;11.116;2022-10-04T11:29:51;100010.25;;;17.05;45.13
68988;BME280;56038;46.080;11.116;2022-10-04T11:35:28;100007.53;;;17.06;45.65
68988;BME280;56038;46.080;11.116;2022-10-04T11:40:52;100010.56;;;17.15;46.09
68988;BME280;56038;46.080;11.116;2022-10-04T11:46:27;99997.19;;;17.18;45.57
68988;BME280;56038;46.080;11.116;2022-10-04T11:57:29;99991.31;;;17.28;46.25
68988;BME280;56038;46.080;11.116;2022-10-04T12:03:22;99986.56;;;17.49;46.84
68988;BME280;56038;46.080;11.116;2022-10-04T12:08:36;99987.25;;;17.67;45.96
68988;BME280;56038;46.080;11.116;2022-10-04T12:13:57;99986.00;;;17.74;46.06
68988;BME280;56038;46.080;11.116;2022-10-04T12:19:28;99980.72;;;17.74;45.92
68988;BME280;56038;46.080;11.116;2022-10-04T12:30:32;99970.50;;;17.82;44.83
68988;BME280;56038;46.080;11.116;2022-10-04T12:35:53;99967.88;;;17.82;44.80
68988;BME280;56038;46.080;11.116;2022-10-04T12:41:02;99968.56;;;17.86;44.79
68988;BME280;56038;46.080;11.116;2022-10-04T12:46:24;99956.63;;;17.79;45.18
68988;BME280;56038;46.080;11.116;2022-10-04T12:51:47;99954.75;;;17.81;44.55
68988;BME280;56038;46.080;11.116;2022-10-04T12:57:05;99946.56;;;18.00;45.29
68988;BME280;56038;46.080;11.116;2022-10-04T13:02:26;99952.22;;;18.22;46.39
68988;BME280;56038;46.080;11.116;2022-10-04T13:07:40;99941.41;;;18.68;44.47
68988;BME280;56038;46.080;11.116;2022-10-04T13:13:10;99945.25;;;18.76;43.81
68988;BME280;56038;46.080;11.116;2022-10-04T13:18:25;99945.75;;;18.96;43.36
68988;BME280;56038;46.080;11.116;2022-10-04T13:29:02;99939.69;;;19.21;43.25
68988;BME280;56038;46.080;11.116;2022-10-04T13:34:16;99934.59;;;19.57;40.21
68988;BME280;56038;46.080;11.116;2022-10-04T13:39:30;99937.13;;;19.97;40.08
68988;BME280;56038;46.080;11.116;2022-10-04T13:44:47;99930.03;;;20.10;38.87
68988;BME280;56038;46.080;11.116;2022-10-04T13:50:14;99924.50;;;20.00;40.05
68988;BME280;56038;46.080;11.116;2022-10-04T13:55:27;99924.28;;;20.03;37.69
68988;BME280;56038;46.080;11.116;2022-10-04T14:07:08;99913.09;;;19.74;37.95
68988;BME280;56038;46.080;11.116;2022-10-04T14:12:45;99914.78;;;19.63;38.92
68988;BME280;56038;46.080;11.116;2022-10-04T14:23:47;99908.63;;;19.23;41.58
68988;BME280;56038;46.080;11.116;2022-10-04T14:34:54;99912.31;;;19.07;42.56
68988;BME280;56038;46.080;11.116;2022-10-04T14:40:22;99911.06;;;19.13;42.07
68988;BME280;56038;46.080;11.116;2022-10-04T14:45:37;99902.25;;;19.00;42.27
68988;BME280;56038;46.080;11.116;2022-10-04T14:50:45;99897.16;;;18.97;41.70
68988;BME280;56038;46.080;11.116;2022-10-04T14:56:09;99893.50;;;18.85;45.02
68988;BME280;56038;46.080;11.116;2022-10-04T15:01:17;99899.81;;;18.70;47.40
68988;BME280;56038;46.080;11.116;2022-10-04T15:06:35;99897.38;;;18.67;48.10
68988;BME280;56038;46.080;11.116;2022-10-04T15:11:47;99894.50;;;18.70;46.90
68988;BME280;56038;46.080;11.116;2022-10-04T15:16:55;99894.34;;;18.85;45.54
68988;BME280;56038;46.080;11.116;2022-10-04T15:22:04;99901.88;;;18.79;42.57
68988;BME280;56038;46.080;11.116;2022-10-04T15:27:37;99899.06;;;18.68;44.88
68988;BME280;56038;46.080;11.116;2022-10-04T15:32:53;99896.88;;;18.33;49.44
68988;BME280;56038;46.080;11.116;2022-10-04T15:38:05;99900.47;;;18.18;49.82
68988;BME280;56038;46.080;11.116;2022-10-04T15:43:23;99897.25;;;18.13;50.12
68988;BME280;56038;46.080;11.116;2022-10-04T15:48:35;99904.63;;;18.08;49.69
68988;BME280;56038;46.080;11.116;2022-10-04T15:53:46;99897.09;;;18.02;49.78
68988;BME280;56038;46.080;11.116;2022-10-04T16:04:40;99910.31;;;17.73;51.15
68988;BME280;56038;46.080;11.116;2022-10-04T16:09:49;99919.38;;;17.83;50.18
68988;BME280;56038;46.080;11.116;2022-10-04T16:15:16;99929.09;;;17.69;51.80
68988;BME280;56038;46.080;11.116;2022-10-04T16:20:49;99938.91;;;17.51;52.68
68988;BME280;56038;46.080;11.116;2022-10-04T16:25:52;99946.03;;;17.34;54.04
68988;BME280;56038;46.080;11.116;2022-10-04T16:31:16;99957.28;;;17.38;54.72
68988;BME280;56038;46.080;11.116;2022-10-04T16:36:21;99959.63;;;17.28;53.80
68988;BME280;56038;46.080;11.116;2022-10-04T16:41:32;99971.16;;;17.12;54.65
68988;BME280;56038;46.080;11.116;2022-10-04T16:46:39;99976.28;;;16.99;55.11
68988;BME280;56038;46.080;11.116;2022-10-04T16:51:57;99983.63;;;16.94;55.25
68988;BME280;56038;46.080;11.116;2022-10-04T16:57:18;99983.34;;;16.83;55.53
68988;BME280;56038;46.080;11.116;2022-10-04T17:02:52;99987.28;;;16.75;55.42
68988;BME280;56038;46.080;11.116;2022-10-04T17:13:28;100005.09;;;16.55;56.78
68988;BME280;56038;46.080;11.116;2022-10-04T17:18:40;100010.25;;;16.40;57.68
68988;BME280;56038;46.080;11.116;2022-10-04T17:24:04;100037.38;;;16.27;57.84
68988;BME280;56038;46.080;11.116;2022-10-04T17:29:22;100044.19;;;16.31;57.49
68988;BME280;56038;46.080;11.116;2022-10-04T17:34:38;100050.78;;;16.22;58.23
68988;BME280;56038;46.080;11.116;2022-10-04T17:39:48;100068.66;;;16.00;59.02
68988;BME280;56038;46.080;11.116;2022-10-04T17:45:03;100074.94;;;15.97;59.18
68988;BME280;56038;46.080;11.116;2022-10-04T17:50:14;100082.94;;;15.96;60.11
68988;BME280;56038;46.080;11.116;2022-10-04T17:55:50;100089.19;;;15.93;60.52
68988;BME280;56038;46.080;11.116;2022-10-04T18:00:59;100101.66;;;15.90;60.43
68988;BME280;56038;46.080;11.116;2022-10-04T18:06:16;100114.66;;;15.75;61.00
68988;BME280;56038;46.080;11.116;2022-10-04T18:11:26;100119.47;;;15.67;62.04
68988;BME280;56038;46.080;11.116;2022-10-04T18:16:30;100116.72;;;15.51;62.70
68988;BME280;56038;46.080;11.116;2022-10-04T18:21:47;100125.53;;;15.50;62.56
68988;BME280;56038;46.080;11.116;2022-10-04T18:26:58;100128.44;;;15.44;62.86
68988;BME280;56038;46.080;11.116;2022-10-04T18:32:30;100134.00;;;15.38;62.75
68988;BME280;56038;46.080;11.116;2022-10-04T18:37:35;100139.13;;;15.41;63.16
68988;BME280;56038;46.080;11.116;2022-10-04T18:42:41;100135.59;;;15.23;63.60
68988;BME280;56038;46.080;11.116;2022-10-04T18:47:44;100134.59;;;15.26;63.72
68988;BME280;56038;46.080;11.116;2022-10-04T18:52:57;100142.00;;;15.18;64.52
68988;BME280;56038;46.080;11.116;2022-10-04T18:58:08;100150.38;;;15.07;64.95
68988;BME280;56038;46.080;11.116;2022-10-04T19:03:36;100147.69;;;15.09;64.27
68988;BME280;56038;46.080;11.116;2022-10-04T19:08:46;100154.94;;;15.04;64.69
68988;BME280;56038;46.080;11.116;2022-10-04T19:13:59;100154.28;;;14.98;65.24
68988;BME280;56038;46.080;11.116;2022-10-04T19:19:26;100159.97;;;14.89;65.61
68988;BME280;56038;46.080;11.116;2022-10-04T19:30:14;100177.75;;;14.84;65.54
68988;BME280;56038;46.080;11.116;2022-10-04T19:35:26;100192.59;;;14.85;65.93
68988;BME280;56038;46.080;11.116;2022-10-04T19:40:40;100201.34;;;14.86;66.03
68988;BME280;56038;46.080;11.116;2022-10-04T19:46:00;100219.31;;;14.76;66.25
68988;BME280;56038;46.080;11.116;2022-10-04T19:51:14;100224.00;;;14.70;66.54
68988;BME280;56038;46.080;11.116;2022-10-04T19:56:22;100232.13;;;14.63;66.71
68988;BME280;56038;46.080;11.116;2022-10-04T20:01:24;100234.69;;;14.65;66.23
68988;BME280;56038;46.080;11.116;2022-10-04T20:06:26;100237.03;;;14.51;67.34
68988;BME280;56038;46.080;11.116;2022-10-04T20:11:46;100244.28;;;14.46;67.58
68988;BME280;56038;46.080;11.116;2022-10-04T20:17:02;100242.44;;;14.48;67.52
68988;BME280;56038;46.080;11.116;2022-10-04T20:28:00;100238.03;;;14.48;67.95
68988;BME280;56038;46.080;11.116;2022-10-04T20:33:03;100244.22;;;14.47;68.20
68988;BME280;56038;46.080;11.116;2022-10-04T20:38:14;100248.06;;;14.38;68.38
68988;BME280;56038;46.080;11.116;2022-10-04T20:43:26;100247.09;;;14.41;68.21
68988;BME280;56038;46.080;11.116;2022-10-04T20:48:28;100256.06;;;14.35;68.47
68988;BME280;56038;46.080;11.116;2022-10-04T20:53:32;100255.19;;;14.35;69.03
68988;BME280;56038;46.080;11.116;2022-10-04T20:58:35;100272.09;;;14.29;69.13
68988;BME280;56038;46.080;11.116;2022-10-04T21:03:40;100293.38;;;14.23;69.20
68988;BME280;56038;46.080;11.116;2022-10-04T21:08:42;100309.88;;;14.27;69.08
68988;BME280;56038;46.080;11.116;2022-10-04T21:13:53;100310.59;;;14.30;69.23
68988;BME280;56038;46.080;11.116;2022-10-04T21:24:33;100330.63;;;14.33;69.71
68988;BME280;56038;46.080;11.116;2022-10-04T21:29:38;100342.75;;;14.37;69.17
68988;BME280;56038;46.080;11.116;2022-10-04T21:34:46;100345.47;;;14.34;69.26
68988;BME280;56038;46.080;11.116;2022-10-04T21:39:48;100366.41;;;14.37;68.79
68988;BME280;56038;46.080;11.116;2022-10-04T21:44:51;100362.00;;;14.37;68.86
68988;BME280;56038;46.080;11.116;2022-10-04T21:49:52;100369.84;;;14.39;68.71
68988;BME280;56038;46.080;11.116;2022-10-04T21:54:54;100370.75;;;14.38;67.83
68988;BME280;56038;46.080;11.116;2022-10-04T21:59:57;100378.44;;;14.43;67.99
68988;BME280;56038;46.080;11.116;2022-10-04T22:04:59;100383.19;;;14.33;67.95
68988;BME280;56038;46.080;11.116;2022-10-04T22:10:00;100374.41;;;14.34;67.73
68988;BME280;56038;46.080;11.116;2022-10-04T22:15:05;100377.94;;;14.33;66.78
68988;BME280;56038;46.080;11.116;2022-10-04T22:20:07;100385.16;;;14.28;66.59
68988;BME280;56038;46.080;11.116;2022-10-04T22:25:13;100375.13;;;14.16;66.84
68988;BME280;56038;46.080;11.116;2022-10-04T22:30:22;100374.38;;;14.12;67.46
68988;BME280;56038;46.080;11.116;2022-10-04T22:35:28;100375.66;;;14.02;67.83
68988;BME280;56038;46.080;11.116;2022-10-04T22:40:30;100365.13;;;14.02;67.42
68988;BME280;56038;46.080;11.116;2022-10-04T22:45:33;100370.63;;;13.96;67.71
68988;BME280;56038;46.080;11.116;2022-10-04T22:50:36;100371.63;;;13.93;67.84
68988;BME280;56038;46.080;11.116;2022-10-04T22:55:38;100367.28;;;13.92;67.66
68988;BME280;56038;46.080;11.116;2022-10-04T23:00:42;100375.94;;;13.94;67.37
68988;BME280;56038;46.080;11.116;2022-10-04T23:05:45;100374.19;;;13.95;67.03
68988;BME280;56038;46.080;11.116;2022-10-04T23:10:46;100374.31;;;13.92;67.13
68988;BME280;56038;46.080;11.116;2022-10-04T23:15:49;100374.56;;;13.84;67.18
68988;BME280;56038;46.080;11.116;2022-10-04T23:20:55;100379.81;;;13.84;67.49
68988;BME280;56038;46.080;11.116;2022-10-04T23:25:58;100384.47;;;13.77;67.88
68988;BME280;56038;46.080;11.116;2022-10-04T23:31:06;100388.16;;;13.72;67.96
68988;BME280;56038;46.080;11.116;2022-10-04T23:36:14;100404.69;;;13.75;67.61
68988;BME280;56038;46.080;11.116;2022-10-04T23:41:17;100408.78;;;13.59;68.29
68988;BME280;56038;46.080;11.116;2022-10-04T23:46:22;100417.38;;;13.63;68.08
68988;BME280;56038;46.080;11.116;2022-10-04T23:51:23;100407.84;;;13.60;67.90
68988;BME280;56038;46.080;11.116;2022-10-04T23:56:26;100406.03;;;13.62;67.50
